Time;durP1;ratioP1;P1;durP2;ratioP2;P2;SDS_P1;SDS_P2;PMS_P1;PMS_P2;Temp;Humidity;BMP_temperature;BMP_pressure;BME280_temperature;BME280_humidity;BME280_pressure;Samples;Min_cycle;Max_cycle;Signal;HPM_P1;HPM_P2
2023/03/23 00:01:12;;;;;;;9.32;5.93;;;;;;;17.96;46.06;100091.97;5071797;28;20067;-65
2023/03/23 00:03:39;;;;;;;9.07;5.60;;;;;;;17.98;46.27;100101.63;5071236;28;20143;-65
2023/03/23 00:06:07;;;;;;;8.57;5.60;;;;;;;17.93;46.33;100095.78;5071232;28;20041;-65
2023/03/23 00:08:37;;;;;;;9.57;5.45;;;;;;;17.96;46.23;100103.63;5071543;28;20049;-66
2023/03/23 00:11:05;;;;;;;9.27;5.95;;;;;;;17.94;46.28;100097.50;5071421;28;20139;-66
2023/03/23 00:13:32;;;;;;;8.60;5.15;;;;;;;17.87;46.40;100088.28;5071123;28;20129;-66
2023/03/23 00:16:01;;;;;;;8.90;5.80;;;;;;;17.90;46.40;100097.94;5071084;28;20048;-65
2023/03/23 00:18:28;;;;;;;12.43;5.88;;;;;;;17.90;46.54;100092.53;5071213;28;20102;-64
2023/03/23 00:20:58;;;;;;;10.02;6.13;;;;;;;17.87;46.28;100090.13;5071272;28;20486;-66
2023/03/23 00:23:26;;;;;;;9.77;6.03;;;;;;;17.86;46.28;100089.28;5071431;28;20052;-66
2023/03/23 00:25:56;;;;;;;9.80;5.93;;;;;;;17.85;46.30;100089.41;5071275;28;20417;-65
2023/03/23 00:28:26;;;;;;;9.65;6.30;;;;;;;17.85;46.33;100090.25;5071028;28;20044;-65
2023/03/23 00:30:57;;;;;;;10.18;5.60;;;;;;;17.83;46.24;100088.69;5071066;28;20048;-65
2023/03/23 00:33:28;;;;;;;11.70;5.90;;;;;;;17.82;46.18;100095.09;5073834;28;20045;-66
2023/03/23 00:35:56;;;;;;;12.10;6.00;;;;;;;17.80;46.17;100080.91;5074530;28;20101;-65
2023/03/23 00:38:25;;;;;;;8.43;5.35;;;;;;;17.79;46.33;100085.44;5074448;28;20048;-65
2023/03/23 00:40:53;;;;;;;8.68;5.72;;;;;;;17.78;46.22;100083.75;5074309;28;20080;-65
2023/03/23 00:43:24;;;;;;;11.52;6.00;;;;;;;17.77;46.07;100081.19;5074427;28;20119;-64
2023/03/23 00:45:52;;;;;;;10.32;6.22;;;;;;;17.74;46.22;100076.91;5074695;28;20083;-65
2023/03/23 00:48:20;;;;;;;10.25;5.88;;;;;;;17.75;46.33;100084.00;5074693;28;20045;-65
2023/03/23 00:50:49;;;;;;;9.55;5.18;;;;;;;17.73;46.43;100081.44;5074468;28;20575;-66
2023/03/23 00:53:17;;;;;;;10.52;6.03;;;;;;;17.72;46.42;100074.34;5074084;28;20063;-64
2023/03/23 00:55:45;;;;;;;10.57;5.88;;;;;;;17.71;46.35;100069.97;5074243;28;20545;-64
2023/03/23 00:58:13;;;;;;;9.52;6.28;;;;;;;17.68;46.20;100062.13;5074565;28;20136;-64
2023/03/23 01:00:44;;;;;;;8.50;5.70;;;;;;;17.68;46.30;100062.13;5074244;28;20047;-65
2023/03/23 01:03:17;;;;;;;10.70;6.30;;;;;;;17.65;46.13;100072.34;5073612;28;20052;-64
2023/03/23 01:05:46;;;;;;;10.30;6.10;;;;;;;17.66;46.11;100064.13;5073845;28;20068;-65
2023/03/23 01:08:16;;;;;;;10.82;6.22;;;;;;;17.65;46.26;100062.41;5073771;28;20040;-64
2023/03/23 01:10:43;;;;;;;11.02;5.93;;;;;;;17.63;46.17;100064.38;5073995;28;20056;-64
2023/03/23 01:13:10;;;;;;;9.18;5.78;;;;;;;17.62;46.19;100062.69;5073813;28;20127;-64
2023/03/23 01:15:37;;;;;;;10.13;6.20;;;;;;;17.62;46.29;100067.22;5074203;28;20075;-64
2023/03/23 01:18:05;;;;;;;9.80;6.13;;;;;;;17.60;46.26;100061.97;5073710;28;20482;-64
2023/03/23 01:20:33;;;;;;;10.55;6.57;;;;;;;17.59;46.26;100062.97;5073850;28;20041;-65
2023/03/23 01:23:00;;;;;;;10.27;6.13;;;;;;;17.58;46.35;100061.28;5074546;28;20048;-65
2023/03/23 01:25:31;;;;;;;10.07;6.60;;;;;;;17.56;46.34;100063.25;5073951;28;20049;-65
2023/03/23 01:27:59;;;;;;;11.02;6.35;;;;;;;17.55;46.32;100055.31;5073583;28;20123;-65
2023/03/23 01:30:29;;;;;;;9.20;6.15;;;;;;;17.55;46.47;100056.16;5073614;28;20048;-64
2023/03/23 01:32:57;;;;;;;9.10;5.78;;;;;;;17.53;46.33;100052.75;5073513;28;20051;-64
2023/03/23 01:35:24;;;;;;;11.35;6.22;;;;;;;17.53;46.35;100058.13;5073281;28;20049;-65
2023/03/23 01:37:51;;;;;;;9.07;6.07;;;;;;;17.51;46.37;100054.75;5073367;28;20139;-64
2023/03/23 01:40:18;;;;;;;10.55;5.80;;;;;;;17.49;46.17;100054.03;5073410;28;20140;-64
2023/03/23 01:42:47;;;;;;;10.25;6.15;;;;;;;17.49;46.21;100051.34;5073123;28;20056;-65
2023/03/23 01:45:31;;;;;;;10.55;6.78;;;;;;;17.48;46.36;100049.66;5072629;28;20052;-65
2023/03/23 01:48:06;;;;;;;10.95;6.50;;;;;;;17.46;46.39;100046.22;5073169;28;20040;-64
2023/03/23 01:50:40;;;;;;;9.45;6.60;;;;;;;17.42;46.33;100039.41;5073083;28;20065;-64
2023/03/23 01:53:10;;;;;;;10.35;6.38;;;;;;;17.42;46.30;100042.09;5073285;28;20040;-65
2023/03/23 01:55:40;;;;;;;9.95;5.93;;;;;;;17.42;46.18;100045.66;5072855;28;20057;-64
2023/03/23 01:58:10;;;;;;;9.93;6.10;;;;;;;17.40;46.57;100042.25;5072784;28;20062;-64
2023/03/23 02:00:40;;;;;;;10.35;6.57;;;;;;;17.41;46.50;100043.09;5072854;28;20053;-64
2023/03/23 02:03:10;;;;;;;9.65;6.07;;;;;;;17.39;46.38;100045.09;5072954;28;20452;-64
2023/03/23 02:05:39;;;;;;;10.68;6.28;;;;;;;17.35;46.16;100041.81;5072849;28;20552;-64
2023/03/23 02:08:08;;;;;;;9.55;6.55;;;;;;;17.34;46.36;100040.09;5072716;28;20048;-64
2023/03/23 02:10:36;;;;;;;10.00;6.57;;;;;;;17.33;46.13;100035.72;5072758;28;20055;-65
2023/03/23 02:13:05;;;;;;;10.18;6.70;;;;;;;17.33;46.52;100045.66;5072384;28;20045;-64
2023/03/23 02:15:42;;;;;;;9.68;6.43;;;;;;;17.33;46.52;100054.59;5072631;28;20051;-64
2023/03/23 02:18:18;;;;;;;10.45;6.43;;;;;;;17.31;46.59;100053.88;5072476;28;20044;-65
2023/03/23 02:21:21;;;;;;;10.77;6.68;;;;;;;17.27;46.32;100047.03;5071519;28;20044;-66
2023/03/23 02:24:13;;;;;;;9.93;6.63;;;;;;;17.29;46.28;100053.16;5072432;28;20080;-66
2023/03/23 02:26:51;;;;;;;12.13;6.35;;;;;;;17.26;46.23;100050.72;5039158;28;20056;-65
2023/03/23 02:29:56;;;;;;;12.13;6.72;;;;;;;17.27;46.41;100057.81;5072378;28;20040;-65
2023/03/23 02:32:56;;;;;;;10.30;6.22;;;;;;;17.25;46.54;100059.81;5072618;28;20126;-65
2023/03/23 02:35:31;;;;;;;10.13;5.97;;;;;;;17.24;46.49;100051.88;5072162;28;20062;-64
2023/03/23 02:38:02;;;;;;;12.10;6.85;;;;;;;17.25;46.60;100054.44;5072112;28;20040;-65
2023/03/23 02:40:33;;;;;;;8.88;6.20;;;;;;;17.23;46.71;100059.09;5072108;28;20052;-65
2023/03/23 02:43:02;;;;;;;10.63;6.70;;;;;;;17.22;46.37;100064.66;5072135;28;20070;-65
2023/03/23 02:45:32;;;;;;;9.77;6.57;;;;;;;17.20;46.49;100067.47;5052129;28;20044;-65
2023/03/23 02:48:01;;;;;;;10.40;6.35;;;;;;;17.20;46.52;100067.47;5052184;28;20041;-65
2023/03/23 02:50:33;;;;;;;11.98;6.80;;;;;;;17.19;46.61;100070.31;5051683;28;20045;-65
2023/03/23 02:53:02;;;;;;;10.25;6.72;;;;;;;17.16;46.68;100063.34;5052116;28;20134;-65
2023/03/23 02:55:30;;;;;;;9.25;6.15;;;;;;;17.17;46.54;100067.75;5052023;28;20072;-65
2023/03/23 02:57:59;;;;;;;10.43;6.65;;;;;;;17.15;46.36;100059.81;5051794;28;20053;-64
2023/03/23 03:00:26;;;;;;;9.55;6.43;;;;;;;17.14;46.45;100066.19;5051849;28;20045;-64
2023/03/23 03:02:57;;;;;;;10.13;6.68;;;;;;;17.11;46.46;100063.78;5051755;28;20076;-65
2023/03/23 03:05:37;;;;;;;11.43;6.10;;;;;;;17.11;46.70;100063.78;5051798;28;20048;-64
2023/03/23 03:08:17;;;;;;;9.75;6.50;;;;;;;17.12;46.47;100070.00;5051741;28;20079;-64
2023/03/23 03:10:51;;;;;;;9.13;6.28;;;;;;;17.09;46.53;100059.53;5051716;28;20099;-64
2023/03/23 03:13:28;;;;;;;9.32;5.88;;;;;;;17.08;46.38;100061.38;5051792;28;20430;-64
2023/03/23 03:16:00;;;;;;;10.50;6.35;;;;;;;17.08;46.53;100074.84;5051688;28;20045;-64
2023/03/23 03:18:32;;;;;;;9.20;6.13;;;;;;;17.06;46.48;100063.31;5051788;28;20041;-64
2023/03/23 03:21:05;;;;;;;10.20;6.32;;;;;;;17.05;46.76;100074.25;5052051;28;20073;-64
2023/03/23 03:23:34;;;;;;;9.85;6.07;;;;;;;17.04;46.61;100070.69;5051829;28;20460;-64
2023/03/23 03:26:04;;;;;;;9.07;5.93;;;;;;;17.02;46.72;100064.59;5051603;28;20045;-64
2023/03/23 03:28:33;;;;;;;8.80;6.28;;;;;;;17.03;46.95;100071.69;5051671;28;20040;-65
2023/03/23 03:31:03;;;;;;;10.10;6.75;;;;;;;17.00;46.87;100068.44;5051813;28;20057;-64
2023/03/23 03:33:33;;;;;;;10.60;6.60;;;;;;;17.00;46.99;100069.28;5057755;28;20040;-65
2023/03/23 03:36:04;;;;;;;10.32;6.80;;;;;;;17.00;46.80;100077.38;5058046;28;20061;-64
2023/03/23 03:38:42;;;;;;;10.88;6.45;;;;;;;16.99;46.86;100072.97;5053637;28;20045;-65
2023/03/23 03:41:09;;;;;;;9.98;6.13;;;;;;;16.99;46.82;100081.06;5052713;28;20449;-64
2023/03/23 03:43:36;;;;;;;10.00;6.55;;;;;;;16.97;46.88;100080.31;5051773;28;20065;-64
2023/03/23 03:46:03;;;;;;;9.95;6.22;;;;;;;16.95;46.78;100074.22;5051811;28;20132;-64
2023/03/23 03:48:30;;;;;;;10.27;6.65;;;;;;;16.95;46.83;100079.59;5051229;28;20056;-63
2023/03/23 03:51:00;;;;;;;9.88;6.30;;;;;;;16.95;46.88;100076.06;5051385;28;20425;-64
2023/03/23 03:53:28;;;;;;;10.68;6.82;;;;;;;16.94;47.04;100086.00;5051357;28;20057;-64
2023/03/23 03:55:59;;;;;;;10.85;6.32;;;;;;;16.92;46.85;100084.44;5051358;28;20055;-64
2023/03/23 03:58:31;;;;;;;11.25;6.65;;;;;;;16.86;46.83;100083.97;5066876;28;20056;-65
2023/03/23 04:00:59;;;;;;;10.32;6.20;;;;;;;16.90;46.95;100087.25;5051408;28;20045;-64
2023/03/23 04:03:27;;;;;;;9.40;6.55;;;;;;;16.86;46.71;100088.50;5066632;28;20557;-65
2023/03/23 04:05:55;;;;;;;11.18;6.50;;;;;;;16.87;46.73;100090.22;5050975;28;20041;-65
2023/03/23 04:08:23;;;;;;;10.40;6.78;;;;;;;16.87;46.73;100093.75;5054213;28;20103;-65
2023/03/23 04:10:52;;;;;;;9.45;6.50;;;;;;;16.85;46.77;100084.13;5055203;28;20123;-63
2023/03/23 04:13:19;;;;;;;9.77;6.50;;;;;;;16.84;46.98;100088.66;5054786;28;20190;-63
2023/03/23 04:15:47;;;;;;;11.23;6.57;;;;;;;16.83;46.83;100092.34;5070418;28;20099;-64
2023/03/23 04:18:17;;;;;;;10.43;6.38;;;;;;;16.83;46.94;100099.56;5054607;28;20656;-63
2023/03/23 04:20:44;;;;;;;10.23;6.50;;;;;;;16.83;47.09;100096.88;5054990;28;20415;-64
2023/03/23 04:23:11;;;;;;;11.48;6.90;;;;;;;16.82;47.09;100100.56;5054703;28;20410;-64
2023/03/23 04:25:40;;;;;;;10.73;7.05;;;;;;;16.78;46.81;100093.72;5054728;28;20123;-64
2023/03/23 04:28:10;;;;;;;11.23;7.47;;;;;;;16.79;47.00;100096.31;5054584;28;20103;-64
2023/03/23 04:30:37;;;;;;;13.23;7.65;;;;;;;16.78;46.99;100089.19;5054646;28;20099;-64
2023/03/23 04:33:04;;;;;;;12.45;7.68;;;;;;;16.79;47.01;100087.34;5054623;28;20044;-64
2023/03/23 04:35:31;;;;;;;12.85;7.88;;;;;;;16.77;46.83;100092.00;5054898;28;20102;-64
2023/03/23 04:37:59;;;;;;;10.48;7.03;;;;;;;16.76;46.87;100087.63;5069618;28;20124;-64
2023/03/23 04:40:26;;;;;;;11.60;7.22;;;;;;;16.74;46.85;100084.22;5054211;28;20052;-66
2023/03/23 04:42:57;;;;;;;11.50;6.78;;;;;;;16.75;46.67;100094.00;5054369;28;20123;-64
2023/03/23 04:45:29;;;;;;;10.13;6.45;;;;;;;16.73;46.91;100094.13;5054220;28;20535;-65
2023/03/23 04:47:58;;;;;;;10.88;6.85;;;;;;;16.70;46.77;100089.03;5054178;28;20087;-64
2023/03/23 04:50:30;;;;;;;10.95;7.03;;;;;;;16.72;46.92;100099.66;5054298;28;20048;-64
2023/03/23 04:52:58;;;;;;;10.60;6.90;;;;;;;16.68;46.72;100092.78;5054239;28;20406;-64
2023/03/23 04:55:26;;;;;;;10.25;6.82;;;;;;;16.69;46.93;100089.13;5054166;28;20055;-65
2023/03/23 04:57:54;;;;;;;9.88;6.75;;;;;;;16.70;46.94;100098.94;5073223;28;20049;-64
2023/03/23 05:00:21;;;;;;;10.68;6.85;;;;;;;16.70;46.89;100098.94;5074182;28;20044;-64
2023/03/23 05:02:51;;;;;;;10.57;6.80;;;;;;;16.69;46.80;100099.91;5074082;28;20460;-64
2023/03/23 05:05:20;;;;;;;10.95;6.68;;;;;;;16.67;46.78;100093.78;5074328;28;20044;-66
2023/03/23 05:07:48;;;;;;;10.45;7.07;;;;;;;16.65;46.76;100095.75;5072704;28;20105;-64
2023/03/23 05:10:20;;;;;;;11.63;6.53;;;;;;;16.66;46.82;100094.78;5073872;28;20513;-63
2023/03/23 05:12:47;;;;;;;10.07;6.60;;;;;;;16.65;47.00;100098.47;5073711;28;20051;-66
2023/03/23 05:15:16;;;;;;;10.73;6.97;;;;;;;16.62;46.95;100099.59;5073755;28;20448;-66
2023/03/23 05:17:43;;;;;;;11.80;7.32;;;;;;;16.64;46.95;100108.38;5073569;28;20047;-66
2023/03/23 05:20:14;;;;;;;10.88;6.90;;;;;;;16.63;47.17;100113.91;5072749;28;20044;-66
2023/03/23 05:22:41;;;;;;;10.75;6.82;;;;;;;16.63;47.03;100111.22;5073706;28;20040;-65
2023/03/23 05:25:10;;;;;;;12.30;7.00;;;;;;;16.62;47.01;100104.13;5073429;28;20405;-65
2023/03/23 05:27:37;;;;;;;13.10;7.18;;;;;;;16.60;47.01;100106.97;5073420;28;20040;-65
2023/03/23 05:30:06;;;;;;;11.07;7.00;;;;;;;16.59;46.95;100106.06;5073864;28;20428;-64
2023/03/23 05:32:33;;;;;;;9.45;6.93;;;;;;;16.59;46.94;100106.06;5072305;28;20119;-65
2023/03/23 05:35:02;;;;;;;10.73;7.18;;;;;;;16.57;46.94;100102.66;5073330;28;20048;-65
2023/03/23 05:37:32;;;;;;;10.48;6.75;;;;;;;16.56;47.38;100095.56;5073407;28;20071;-64
2023/03/23 05:40:04;;;;;;;12.45;6.78;;;;;;;16.58;47.16;100098.97;5072621;28;20135;-65
2023/03/23 05:42:32;;;;;;;;;;;;;;;16.57;47.31;100097.28;5073460;28;20044;-64
2023/03/23 05:45:00;;;;;;;11.13;7.38;;;;;;;16.57;47.04;100086.50;5073148;28;19920;-63
2023/03/23 05:47:27;;;;;;;10.07;7.05;;;;;;;16.57;47.03;100085.66;5072837;28;20069;-65
2023/03/23 05:49:56;;;;;;;12.43;7.18;;;;;;;16.57;47.10;100085.66;5073063;28;20044;-65
2023/03/23 05:52:24;;;;;;;15.02;7.25;;;;;;;16.56;47.08;100086.66;5072862;28;20052;-65
2023/03/23 05:54:53;;;;;;;10.90;6.70;;;;;;;16.55;47.04;100090.34;5073307;28;20044;-65
2023/03/23 05:57:22;;;;;;;11.45;7.18;;;;;;;16.56;47.18;100100.97;5073394;28;20049;-65
2023/03/23 05:59:50;;;;;;;11.35;7.20;;;;;;;16.56;47.16;100092.88;5072658;28;20045;-65
2023/03/23 06:02:17;;;;;;;11.88;6.60;;;;;;;16.56;47.22;100086.66;5072898;28;20063;-65
2023/03/23 06:04:44;;;;;;;11.93;7.32;;;;;;;16.55;47.10;100088.50;5072881;28;20044;-65
2023/03/23 06:07:14;;;;;;;10.93;6.90;;;;;;;16.56;47.02;100092.88;5072782;28;20545;-65
2023/03/23 06:09:41;;;;;;;10.75;7.10;;;;;;;16.55;47.11;100096.56;5072988;28;20371;-66
2023/03/23 06:12:11;;;;;;;9.68;6.40;;;;;;;16.57;47.09;100101.81;5072221;28;20106;-66
2023/03/23 06:14:38;;;;;;;9.82;6.32;;;;;;;16.56;47.34;100103.66;5071212;28;20067;-65
2023/03/23 06:17:05;;;;;;;12.45;7.32;;;;;;;16.57;47.31;100099.97;5072402;28;20047;-66
2023/03/23 06:19:34;;;;;;;11.13;7.20;;;;;;;16.56;47.42;100100.97;5072300;28;20060;-64
2023/03/23 06:22:01;;;;;;;10.65;6.82;;;;;;;16.56;47.42;100100.97;5072363;28;20166;-65
2023/03/23 06:24:28;;;;;;;10.18;6.88;;;;;;;16.57;47.24;100097.28;5072522;28;20350;-65
2023/03/23 06:26:55;;;;;;;8.98;6.63;;;;;;;16.56;47.32;100083.97;5072373;28;20056;-64
2023/03/23 06:29:24;;;;;;;10.75;7.03;;;;;;;16.59;47.40;100095.31;5071818;28;20102;-64
2023/03/23 06:31:56;;;;;;;11.18;7.00;;;;;;;16.59;47.26;100092.59;5072127;28;20055;-64
2023/03/23 06:34:23;;;;;;;9.93;6.72;;;;;;;16.57;47.37;100096.44;5071909;28;20537;-65
2023/03/23 06:36:50;;;;;;;9.52;6.25;;;;;;;16.56;47.52;100094.72;5071974;28;20052;-65
2023/03/23 06:39:17;;;;;;;10.00;6.88;;;;;;;16.55;47.79;100099.25;5070603;28;20052;-65
2023/03/23 06:41:44;;;;;;;12.30;6.95;;;;;;;16.57;48.07;100091.91;5071624;28;20048;-65
2023/03/23 06:44:13;;;;;;;11.63;6.95;;;;;;;16.56;48.94;100094.72;5068410;28;20045;-64
2023/03/23 06:46:41;;;;;;;10.75;6.82;;;;;;;16.58;48.97;100103.53;5060379;28;20045;-65
2023/03/23 06:49:09;;;;;;;11.30;6.72;;;;;;;16.59;49.14;100098.00;5051682;28;20362;-64
2023/03/23 06:51:37;;;;;;;12.18;6.72;;;;;;;16.59;49.63;100111.47;5051653;28;20056;-64
2023/03/23 06:54:04;;;;;;;11.27;6.93;;;;;;;16.60;49.74;100105.13;5051713;28;20052;-64
2023/03/23 06:56:32;;;;;;;11.10;6.80;;;;;;;16.60;49.53;100105.13;5051617;28;20049;-66
2023/03/23 06:58:59;;;;;;;10.68;7.00;;;;;;;16.58;49.70;100107.06;5050570;28;20057;-64
2023/03/23 07:01:26;;;;;;;11.80;6.82;;;;;;;16.62;49.67;100104.13;5051711;28;20040;-64
2023/03/23 07:03:56;;;;;;;9.70;6.70;;;;;;;16.62;49.05;100101.44;5051560;28;20136;-64
2023/03/23 07:06:23;;;;;;;10.05;6.57;;;;;;;16.62;49.24;100115.75;5051577;28;20513;-65
2023/03/23 07:08:50;;;;;;;10.60;6.43;;;;;;;16.64;49.06;100108.38;5051693;28;20082;-66
2023/03/23 07:11:17;;;;;;;9.75;6.72;;;;;;;16.64;49.21;100113.75;5051736;28;20049;-66
2023/03/23 07:13:45;;;;;;;9.23;6.40;;;;;;;16.66;49.23;100110.94;5051678;28;20049;-65
2023/03/23 07:16:12;;;;;;;11.13;6.85;;;;;;;16.60;49.06;100102.41;5051550;28;20490;-65
2023/03/23 07:18:39;;;;;;;10.13;6.07;;;;;;;16.67;49.02;100112.63;5051316;28;20496;-66
2023/03/23 07:21:08;;;;;;;9.55;6.18;;;;;;;16.65;49.03;100118.16;5051719;28;20493;-64
2023/03/23 07:23:35;;;;;;;10.45;6.53;;;;;;;16.67;48.94;100123.41;5051261;28;20128;-66
2023/03/23 07:26:03;;;;;;;9.27;6.18;;;;;;;16.69;49.16;100126.84;5051445;28;20413;-65
2023/03/23 07:28:30;;;;;;;9.95;6.45;;;;;;;16.70;49.23;100128.56;5051365;28;20387;-66
2023/03/23 07:30:57;;;;;;;10.23;6.55;;;;;;;16.69;49.09;100126.84;5051297;28;20074;-67
2023/03/23 07:33:24;;;;;;;10.15;7.18;;;;;;;16.72;49.39;100129.28;5051161;28;20509;-65
2023/03/23 07:35:51;;;;;;;10.80;6.40;;;;;;;16.71;49.51;100131.13;5051435;28;20059;-71
2023/03/23 07:38:20;;;;;;;12.75;7.22;;;;;;;16.70;49.58;100131.28;5051004;28;20045;-70
2023/03/23 07:40:48;;;;;;;12.10;7.10;;;;;;;16.73;49.65;100141.75;5051032;28;20721;-67
2023/03/23 07:43:15;;;;;;;13.93;7.30;;;;;;;16.73;49.24;100139.06;5054116;28;20045;-66
2023/03/23 07:45:42;;;;;;;14.88;7.28;;;;;;;16.74;49.66;100140.78;5055108;28;20041;-66
2023/03/23 07:48:09;;;;;;;13.98;7.28;;;;;;;16.74;49.72;100138.94;5055079;28;20052;-65
2023/03/23 07:50:37;;;;;;;13.43;8.07;;;;;;;16.75;49.50;100140.63;5055113;28;20048;-66
2023/03/23 07:53:05;;;;;;;13.90;7.93;;;;;;;16.76;49.24;100138.78;5055296;28;20407;-66
2023/03/23 07:55:33;;;;;;;12.80;7.70;;;;;;;16.76;49.24;100138.78;5055100;28;20049;-66
2023/03/23 07:58:00;;;;;;;16.08;7.97;;;;;;;16.79;49.46;100143.91;5054670;28;20493;-66
2023/03/23 08:00:28;;;;;;;12.75;8.15;;;;;;;16.78;49.23;100140.34;5054876;28;20128;-66
2023/03/23 08:02:58;;;;;;;12.25;8.02;;;;;;;16.78;49.43;100137.66;5054868;28;20045;-67
2023/03/23 08:05:27;;;;;;;15.73;7.57;;;;;;;16.81;49.29;100147.34;5054759;28;20051;-66
2023/03/23 08:07:55;;;;;;;12.68;7.05;;;;;;;16.82;49.34;100138.25;5054698;28;20129;-67
2023/03/23 08:10:23;;;;;;;13.98;7.78;;;;;;;16.82;49.39;100143.66;5055164;28;20429;-66
2023/03/23 08:12:55;;;;;;;14.07;8.15;;;;;;;16.84;48.95;100144.38;5054660;28;20118;-66
2023/03/23 08:15:27;;;;;;;15.63;8.02;;;;;;;16.86;48.98;100145.06;5054727;28;20072;-66
2023/03/23 08:17:54;;;;;;;14.13;7.90;;;;;;;16.83;48.91;100139.97;5054410;28;20589;-66
2023/03/23 08:20:22;;;;;;;13.10;7.72;;;;;;;16.88;48.94;100140.41;5054421;28;20496;-66
2023/03/23 08:22:55;;;;;;;14.98;7.40;;;;;;;16.88;49.01;100143.94;5054331;28;20128;-66
2023/03/23 08:25:24;;;;;;;11.75;6.85;;;;;;;16.88;48.86;100141.25;5054338;28;20048;-67
2023/03/23 08:27:51;;;;;;;11.52;7.13;;;;;;;16.90;48.72;100146.53;5054724;28;20048;-66
2023/03/23 08:30:22;;;;;;;10.20;7.43;;;;;;;16.92;48.93;100149.09;5054315;28;20490;-66
2023/03/23 08:32:50;;;;;;;12.70;7.38;;;;;;;16.89;49.04;100144.81;5054080;28;20120;-67
2023/03/23 08:35:18;;;;;;;11.15;7.03;;;;;;;16.95;49.08;100143.41;5053055;28;20049;-67
2023/03/23 08:37:45;;;;;;;13.63;7.60;;;;;;;16.97;49.22;100153.06;5054141;28;20486;-66
2023/03/23 08:40:19;;;;;;;11.13;7.00;;;;;;;16.96;49.40;100140.56;5054238;28;20148;-66
2023/03/23 08:42:47;;;;;;;10.00;6.78;;;;;;;16.99;49.55;100148.41;5054397;28;20049;-66
2023/03/23 08:45:17;;;;;;;11.93;7.30;;;;;;;17.01;49.35;100149.13;5054175;28;20041;-66
2023/03/23 08:47:51;;;;;;;10.75;6.70;;;;;;;17.01;49.50;100143.75;5054272;28;20077;-67
2023/03/23 08:50:21;;;;;;;10.48;6.70;;;;;;;17.02;49.76;100150.81;5054015;28;20152;-66
2023/03/23 08:52:49;;;;;;;12.32;7.55;;;;;;;17.02;49.73;100142.75;5053660;28;20047;-67
2023/03/23 08:55:17;;;;;;;10.82;6.45;;;;;;;17.04;49.67;100145.28;5053998;28;20445;-67
2023/03/23 08:57:44;;;;;;;10.80;6.95;;;;;;;17.04;49.67;100137.22;5053794;28;20398;-66
2023/03/23 09:00:16;;;;;;;13.32;7.00;;;;;;;17.07;49.79;100143.16;5053850;28;20095;-66
2023/03/23 09:02:44;;;;;;;13.02;6.70;;;;;;;17.08;49.63;100139.50;5053533;28;20076;-68
2023/03/23 09:05:13;;;;;;;10.63;6.88;;;;;;;17.10;49.66;100136.69;5053705;28;20051;-67
2023/03/23 09:07:41;;;;;;;12.13;6.40;;;;;;;17.12;49.87;100138.25;5052516;28;20053;-66
2023/03/23 09:10:10;;;;;;;12.88;7.03;;;;;;;17.10;49.70;100132.13;5053637;28;20055;-66
2023/03/23 09:12:37;;;;;;;11.85;6.50;;;;;;;17.14;49.88;100133.56;5053609;28;20132;-66
2023/03/23 09:15:08;;;;;;;10.90;6.60;;;;;;;17.16;49.99;100131.56;5053634;28;20076;-66
2023/03/23 09:17:36;;;;;;;12.20;6.50;;;;;;;17.14;50.16;100124.63;5053767;28;20124;-67
2023/03/23 09:20:07;;;;;;;9.85;6.40;;;;;;;17.20;50.14;100139.41;5054170;28;20053;-66
2023/03/23 09:22:35;;;;;;;12.98;6.90;;;;;;;17.20;50.15;100131.31;5054373;28;20047;-66
2023/03/23 09:25:03;;;;;;;9.52;6.47;;;;;;;17.23;50.19;100131.03;5053664;28;20037;-66
2023/03/23 09:27:30;;;;;;;9.68;5.95;;;;;;;17.25;50.30;100124.50;5053569;28;20490;-66
2023/03/23 09:29:58;;;;;;;9.40;6.22;;;;;;;17.27;50.50;100124.38;5053327;28;20051;-67
2023/03/23 09:32:25;;;;;;;10.23;6.50;;;;;;;17.28;50.33;100118.88;5053260;28;20052;-67
2023/03/23 09:34:55;;;;;;;10.05;5.97;;;;;;;17.28;50.55;100112.63;5053438;28;20513;-67
2023/03/23 09:37:22;;;;;;;10.10;6.10;;;;;;;17.31;50.39;100117.72;5053168;28;20127;-67
2023/03/23 09:39:50;;;;;;;10.90;6.53;;;;;;;17.32;50.63;100108.63;5052854;28;20057;-66
2023/03/23 09:42:30;;;;;;;9.98;5.72;;;;;;;17.36;50.42;100110.06;5052927;28;20441;-66
2023/03/23 09:45:09;;;;;;;9.82;5.90;;;;;;;17.35;50.43;100111.91;5053209;28;20045;-66
2023/03/23 09:47:42;;;;;;;10.52;6.32;;;;;;;17.40;50.57;100114.19;5053134;28;20053;-66
2023/03/23 09:50:13;;;;;;;10.13;6.00;;;;;;;17.43;50.50;100105.81;5053186;28;20486;-67
2023/03/23 09:52:45;;;;;;;11.32;6.55;;;;;;;17.49;50.16;100109.81;5052742;28;20041;-66
2023/03/23 09:55:17;;;;;;;9.90;6.27;;;;;;;17.51;50.39;100113.22;5053130;28;20107;-66
2023/03/23 09:57:52;;;;;;;9.68;6.03;;;;;;;17.54;50.36;100100.28;5052858;28;20382;-67
2023/03/23 10:00:24;;;;;;;9.65;6.20;;;;;;;17.54;50.34;100097.59;5052786;28;20076;-67
2023/03/23 10:03:01;;;;;;;11.27;6.32;;;;;;;17.59;50.40;100097.19;5035205;28;20446;-67
2023/03/23 10:05:34;;;;;;;10.43;5.95;;;;;;;17.62;50.36;100095.06;5052064;28;20076;-66
2023/03/23 10:08:07;;;;;;;11.07;6.47;;;;;;;17.65;50.57;100093.91;5052704;28;20120;-66
2023/03/23 10:10:46;;;;;;;9.55;5.93;;;;;;;17.68;50.70;100101.75;5052588;28;20052;-66
2023/03/23 10:13:30;;;;;;;8.93;5.80;;;;;;;17.69;50.60;100087.25;5053044;28;20041;-66
2023/03/23 10:15:58;;;;;;;10.85;6.22;;;;;;;17.74;50.79;100082.31;5052608;28;20049;-67
2023/03/23 10:18:30;;;;;;;9.75;5.88;;;;;;;17.74;50.73;100072.38;5053030;28;20041;-66
2023/03/23 10:20:59;;;;;;;10.55;5.85;;;;;;;17.76;50.65;100074.94;5055469;28;20490;-65
2023/03/23 10:23:53;;;;;;;9.20;6.10;;;;;;;17.80;50.74;100070.09;5054916;28;20045;-67
2023/03/23 10:26:31;;;;;;;9.20;5.97;;;;;;;17.81;50.68;100067.25;5051712;28;20057;-67
2023/03/23 10:29:02;;;;;;;10.80;6.28;;;;;;;17.83;51.02;100059.88;5052412;28;20052;-66
2023/03/23 10:31:34;;;;;;;9.68;5.93;;;;;;;17.87;51.57;100057.75;5052165;28;20055;-65
2023/03/23 10:34:10;;;;;;;10.23;6.10;;;;;;;17.86;52.23;100042.56;5052761;28;20120;-66
2023/03/23 10:36:41;;;;;;;9.80;5.90;;;;;;;17.91;52.12;100051.06;5052119;28;20049;-66
2023/03/23 10:39:14;;;;;;;9.55;6.25;;;;;;;17.93;52.23;100051.75;5051691;28;20048;-68
2023/03/23 10:41:42;;;;;;;9.57;5.50;;;;;;;17.95;52.24;100052.47;5051895;28;20106;-67
2023/03/23 10:44:12;;;;;;;7.97;5.32;;;;;;;17.96;52.12;100059.59;5052065;28;20045;-66
2023/03/23 10:46:48;;;;;;;8.82;5.80;;;;;;;17.99;52.07;100059.28;5053767;28;20049;-66
2023/03/23 10:49:22;;;;;;;9.60;5.93;;;;;;;17.99;51.94;100054.75;5054434;28;20044;-66
2023/03/23 10:52:00;;;;;;;8.05;5.43;;;;;;;18.00;51.98;100045.66;5053747;28;20049;-66
2023/03/23 10:54:33;;;;;;;9.30;5.60;;;;;;;18.02;51.97;100050.91;5051722;28;20045;-66
2023/03/23 10:57:01;;;;;;;9.65;5.57;;;;;;;18.05;51.86;100053.31;5051738;28;20157;-67
2023/03/23 10:59:32;;;;;;;10.45;5.30;;;;;;;18.05;51.98;100047.94;5051549;28;20052;-66
2023/03/23 11:02:03;;;;;;;8.13;5.45;;;;;;;18.07;51.62;100048.63;5051356;28;20048;-66
2023/03/23 11:04:32;;;;;;;8.07;5.18;;;;;;;18.08;51.47;100053.03;5051507;28;20049;-66
2023/03/23 11:07:02;;;;;;;8.65;5.40;;;;;;;18.11;51.75;100049.19;5051673;28;20045;-67
2023/03/23 11:09:37;;;;;;;8.68;5.78;;;;;;;18.11;51.71;100047.31;5051995;28;20040;-67
2023/03/23 11:12:18;;;;;;;7.43;4.95;;;;;;;18.13;51.77;100034.53;5051955;28;20056;-66
2023/03/23 11:14:45;;;;;;;8.35;5.10;;;;;;;18.12;51.66;100040.94;5051491;28;20041;-66
2023/03/23 11:17:23;;;;;;;8.95;5.57;;;;;;;18.13;51.53;100029.13;5051568;28;20079;-67
2023/03/23 11:19:50;;;;;;;10.38;5.45;;;;;;;18.15;51.62;100029.88;5051497;28;20551;-66
2023/03/23 11:22:21;;;;;;;8.27;5.45;;;;;;;18.17;51.44;100025.16;5051476;28;20052;-66
2023/03/23 11:24:54;;;;;;;8.10;5.20;;;;;;;18.20;51.41;100016.75;5051345;28;20049;-67
2023/03/23 11:27:24;;;;;;;7.85;5.10;;;;;;;18.24;51.38;100015.50;5050057;28;20612;-66
2023/03/23 11:29:55;;;;;;;7.93;4.60;;;;;;;18.26;50.87;100018.88;5051227;28;20416;-68
2023/03/23 11:32:26;;;;;;;8.15;4.80;;;;;;;18.29;50.92;100018.59;5051548;28;20065;-66